Time;durP1;ratioP1;P1;durP2;ratioP2;P2;SDS_P1;SDS_P2;PMS_P1;PMS_P2;Temp;Humidity;BMP_temperature;BMP_pressure;BME280_temperature;BME280_humidity;BME280_pressure;Samples;Min_cycle;Max_cycle;Signal;HPM_P1;HPM_P2
2023/10/25 00:02:03;;;;;;;17.40;5.90;;;;;;;12.32;84.39;94571.92;106984;1272;23877;-79
2023/10/25 00:04:31;;;;;;;13.30;6.40;;;;;;;12.28;84.41;94577.38;107164;1272;23137;-80
2023/10/25 00:06:59;;;;;;;12.40;5.80;;;;;;;12.27;84.62;94561.34;107104;1272;22720;-82
2023/10/25 00:09:27;;;;;;;13.40;6.00;;;;;;;12.32;84.54;94557.63;107087;1272;24388;-80
2023/10/25 00:11:55;;;;;;;15.10;6.20;;;;;;;12.30;84.41;94547.48;107184;1272;23903;-79
2023/10/25 00:14:24;;;;;;;16.70;5.60;;;;;;;12.23;84.32;94543.91;107121;1272;22576;-80
2023/10/25 00:16:52;;;;;;;11.50;6.40;;;;;;;12.20;84.63;94555.86;107306;1272;24219;-79
2023/10/25 00:19:20;;;;;;;12.90;5.20;;;;;;;12.27;84.92;94563.66;107174;1272;22558;-81
2023/10/25 00:21:48;;;;;;;15.00;5.30;;;;;;;12.29;84.70;94560.76;107097;1272;22522;-79
2023/10/25 00:24:16;;;;;;;15.60;5.90;;;;;;;12.29;84.84;94570.62;107082;1272;22572;-80
2023/10/25 00:26:44;;;;;;;14.20;5.90;;;;;;;12.28;84.73;94560.63;107287;1272;23943;-81
2023/10/25 00:29:12;;;;;;;17.30;6.20;;;;;;;12.24;84.53;94564.67;107096;1272;25418;-81
2023/10/25 00:31:40;;;;;;;18.00;5.90;;;;;;;12.20;84.90;94560.09;107063;1272;22563;-82
2023/10/25 00:34:09;;;;;;;18.60;5.90;;;;;;;12.18;84.68;94561.05;107109;1272;22574;-82
2023/10/25 00:36:37;;;;;;;12.30;5.90;;;;;;;12.14;84.78;94563.14;106843;1272;22517;-81
2023/10/25 00:39:05;;;;;;;15.50;7.20;;;;;;;12.10;85.21;94560.64;106884;1272;24369;-81
2023/10/25 00:41:33;;;;;;;14.20;6.90;;;;;;;12.14;85.42;94555.91;106933;1272;22523;-81
2023/10/25 00:44:02;;;;;;;13.80;6.90;;;;;;;12.24;85.09;94568.02;107120;1272;22517;-79
2023/10/25 00:46:30;;;;;;;13.30;6.60;;;;;;;12.30;85.48;94561.41;107131;1272;22579;-81
2023/10/25 00:49:00;;;;;;;14.50;6.70;;;;;;;12.34;85.22;94559.66;106901;1272;22653;-81
2023/10/25 00:51:29;;;;;;;18.80;6.60;;;;;;;12.40;85.21;94556.58;107125;1272;24202;-81
2023/10/25 00:54:01;;;;;;;14.50;6.10;;;;;;;12.51;85.23;94550.48;106819;1272;25507;-81
2023/10/25 00:56:33;;;;;;;20.90;6.60;;;;;;;12.64;84.95;94544.98;107089;1272;25478;-82
2023/10/25 00:59:01;;;;;;;22.80;5.20;;;;;;;12.73;84.67;94549.34;107095;1272;22871;-81
2023/10/25 01:01:30;;;;;;;10.30;2.30;;;;;;;12.89;83.49;94540.19;107150;1272;25396;-80
2023/10/25 01:03:58;;;;;;;16.40;2.80;;;;;;;13.43;78.03;94528.38;106832;1272;23237;-82
2023/10/25 01:06:27;;;;;;;19.40;3.40;;;;;;;14.20;73.93;94506.48;106818;1272;22532;-82
2023/10/25 01:08:56;;;;;;;21.00;2.70;;;;;;;14.68;73.22;94490.10;107193;1272;22527;-81
2023/10/25 01:11:26;;;;;;;17.40;3.10;;;;;;;14.94;74.05;94479.15;106893;1272;25532;-81
2023/10/25 01:13:54;;;;;;;18.20;2.80;;;;;;;15.06;73.17;94490.56;107075;1272;24259;-80
2023/10/25 01:16:22;;;;;;;12.90;3.60;;;;;;;15.09;73.40;94534.15;107235;1272;22520;-80
2023/10/25 01:18:50;;;;;;;18.30;2.80;;;;;;;15.06;71.84;94543.69;106879;1272;22671;-81
2023/10/25 01:21:18;;;;;;;19.60;3.00;;;;;;;15.23;69.02;94543.84;106876;1272;22629;-80
2023/10/25 01:23:51;;;;;;;16.50;2.80;;;;;;;15.45;67.69;94538.92;107126;1272;22528;-80
2023/10/25 01:26:20;;;;;;;20.20;2.80;;;;;;;15.61;67.28;94511.83;106837;1272;22513;-82
2023/10/25 01:28:50;;;;;;;15.80;2.90;;;;;;;15.66;68.30;94482.51;106922;1272;25597;-81
2023/10/25 01:31:18;;;;;;;14.00;3.20;;;;;;;15.64;68.62;94482.42;107082;1272;24268;-82
2023/10/25 01:33:51;;;;;;;20.30;3.00;;;;;;;15.59;68.74;94472.42;107071;1272;24173;-80
2023/10/25 01:36:19;;;;;;;18.50;3.50;;;;;;;15.53;68.69;94469.52;107112;1272;22577;-81
2023/10/25 01:38:48;;;;;;;18.30;2.80;;;;;;;15.46;69.02;94469.59;107081;1272;22532;-81
2023/10/25 01:41:16;;;;;;;12.10;3.00;;;;;;;15.38;69.43;94475.00;106743;1272;25515;-81
2023/10/25 01:43:44;;;;;;;19.80;3.00;;;;;;;15.24;70.22;94469.04;106893;1272;25242;-83
2023/10/25 01:46:12;;;;;;;19.80;3.20;;;;;;;15.12;70.68;94458.90;106840;1272;24047;-81
2023/10/25 01:48:43;;;;;;;14.80;3.20;;;;;;;15.06;70.50;94452.99;107240;1272;25300;-81
2023/10/25 01:51:11;;;;;;;17.70;3.50;;;;;;;15.11;70.84;94438.06;107057;1272;24197;-81
2023/10/25 01:53:39;;;;;;;21.50;3.80;;;;;;;15.05;71.12;94433.93;107089;1272;24074;-81
2023/10/25 01:56:08;;;;;;;21.70;3.20;;;;;;;14.96;71.68;94423.28;107165;1272;22615;-81
2023/10/25 01:58:36;;;;;;;18.00;3.30;;;;;;;14.82;72.10;94414.85;106984;1272;22526;-81
2023/10/25 02:01:06;;;;;;;14.40;2.40;;;;;;;14.70;72.70;94419.67;107214;1272;22520;-81
2023/10/25 02:03:35;;;;;;;24.90;3.90;;;;;;;14.62;73.25;94411.44;107334;1250;23906;-81
2023/10/25 02:06:13;;;;;;;14.50;2.70;;;;;;;14.55;73.90;94414.85;107257;1272;25296;-81
2023/10/25 02:08:42;;;;;;;26.80;3.70;;;;;;;14.50;74.19;94413.63;106825;1272;25350;-81
2023/10/25 02:11:10;;;;;;;20.80;3.20;;;;;;;14.48;74.13;94411.27;107221;1272;23013;-80
2023/10/25 02:13:38;;;;;;;13.90;3.10;;;;;;;14.45;74.71;94410.40;107123;1272;22628;-81
2023/10/25 02:16:17;;;;;;;19.80;3.60;;;;;;;14.40;74.65;94414.16;107121;1272;25300;-81
2023/10/25 02:18:46;;;;;;;18.30;3.10;;;;;;;14.38;74.51;94411.82;106784;1272;25414;-81
2023/10/25 02:21:14;;;;;;;21.10;3.20;;;;;;;14.35;74.71;94409.30;107101;1272;26631;-81
2023/10/25 02:23:42;;;;;;;17.90;3.00;;;;;;;14.32;74.67;94411.22;106918;1272;24242;-81
2023/10/25 02:26:10;;;;;;;14.30;3.50;;;;;;;14.23;74.93;94407.45;107115;1272;22528;-81
2023/10/25 02:28:38;;;;;;;16.30;3.50;;;;;;;14.16;75.34;94405.34;107055;1263;22775;-81
2023/10/25 02:31:07;;;;;;;19.30;4.00;;;;;;;14.08;75.63;94413.71;107094;1272;25401;-81
2023/10/25 02:33:37;;;;;;;17.80;3.90;;;;;;;14.02;76.02;94406.77;107161;1272;25420;-81
2023/10/25 02:36:06;;;;;;;16.80;3.20;;;;;;;13.95;75.89;94394.23;107117;1272;24269;-81
2023/10/25 02:38:34;;;;;;;20.30;4.60;;;;;;;13.89;76.09;94385.70;107044;1272;25542;-81
2023/10/25 02:41:02;;;;;;;21.90;4.60;;;;;;;13.82;76.20;94384.81;107090;1272;22650;-80
2023/10/25 02:43:30;;;;;;;15.60;3.00;;;;;;;13.78;76.51;94378.48;106874;1272;25389;-81
2023/10/25 02:46:02;;;;;;;16.20;3.80;;;;;;;13.72;76.74;94382.30;106881;1272;22629;-81
2023/10/25 02:48:31;;;;;;;20.80;4.00;;;;;;;13.67;76.81;94377.23;106881;1272;24332;-81
2023/10/25 02:51:00;;;;;;;15.80;3.00;;;;;;;13.63;77.21;94383.45;107093;1272;22540;-81
2023/10/25 02:53:29;;;;;;;14.90;3.10;;;;;;;13.54;77.30;94384.59;107177;1272;24269;-81
2023/10/25 02:56:07;;;;;;;12.00;2.70;;;;;;;13.50;77.55;94381.61;106853;1272;25031;-81
2023/10/25 02:58:35;;;;;;;21.50;3.80;;;;;;;13.45;77.79;94381.17;106982;1272;23068;-81
2023/10/25 03:01:04;;;;;;;16.30;2.90;;;;;;;13.44;78.12;94384.77;107147;1272;25371;-81
2023/10/25 03:03:34;;;;;;;18.60;2.80;;;;;;;13.42;78.38;94379.54;107115;1272;22517;-81
2023/10/25 03:06:03;;;;;;;20.70;3.70;;;;;;;13.38;78.64;94379.54;107146;1272;25809;-81
2023/10/25 03:08:31;;;;;;;16.20;2.80;;;;;;;13.37;79.10;94373.23;107117;1272;22525;-81
2023/10/25 03:10:59;;;;;;;20.10;3.00;;;;;;;13.34;79.50;94367.19;106704;1272;25303;-81
2023/10/25 03:13:28;;;;;;;12.90;2.50;;;;;;;13.33;79.63;94357.38;106866;1272;22525;-81
2023/10/25 03:15:57;;;;;;;22.90;3.00;;;;;;;13.30;79.51;94355.06;106900;1251;22753;-81
2023/10/25 03:18:25;;;;;;;17.00;3.10;;;;;;;13.24;79.78;94346.66;107174;1272;24044;-81
2023/10/25 03:20:54;;;;;;;21.00;4.60;;;;;;;13.21;79.75;94346.44;107157;1272;22550;-81
2023/10/25 03:23:22;;;;;;;17.80;3.50;;;;;;;13.20;79.73;94343.48;107077;1272;24336;-81
2023/10/25 03:25:50;;;;;;;19.50;2.70;;;;;;;13.14;79.78;94350.85;106835;1272;22532;-80
2023/10/25 03:28:18;;;;;;;18.40;4.20;;;;;;;13.09;79.59;94350.38;107128;1272;22650;-81
2023/10/25 03:30:46;;;;;;;16.90;3.00;;;;;;;13.02;79.63;94349.14;107092;1272;22521;-81
2023/10/25 03:33:14;;;;;;;18.20;3.80;;;;;;;12.98;79.84;94350.02;107090;1272;22642;-81
2023/10/25 03:35:51;;;;;;;21.20;3.40;;;;;;;12.93;79.96;94342.31;107116;1272;23055;-80
2023/10/25 03:38:20;;;;;;;25.20;3.30;;;;;;;12.92;80.22;94350.81;107115;1272;23874;-81
2023/10/25 03:40:48;;;;;;;16.10;3.10;;;;;;;12.88;79.90;94344.48;106825;1272;22543;-81
2023/10/25 03:43:16;;;;;;;19.60;3.00;;;;;;;12.84;79.89;94339.56;107131;1272;25335;-81
2023/10/25 03:45:45;;;;;;;18.80;3.00;;;;;;;12.82;80.02;94340.21;107114;1272;25408;-81
2023/10/25 03:48:14;;;;;;;21.70;3.90;;;;;;;12.81;80.15;94345.20;107076;1272;24215;-80
2023/10/25 03:50:42;;;;;;;24.40;3.40;;;;;;;12.80;80.17;94339.61;106858;1272;22525;-82
2023/10/25 03:53:10;;;;;;;26.60;3.60;;;;;;;12.77;80.14;94339.36;107061;1272;22520;-81
2023/10/25 03:55:38;;;;;;;17.20;3.60;;;;;;;12.70;80.31;94342.55;106836;1272;22472;-81
2023/10/25 03:58:06;;;;;;;18.10;3.60;;;;;;;12.68;80.69;94337.13;107134;1266;23880;-81
2023/10/25 04:00:34;;;;;;;16.80;2.90;;;;;;;12.63;80.52;94339.49;107096;1272;22573;-80
2023/10/25 04:03:03;;;;;;;23.50;4.90;;;;;;;12.55;80.63;94352.55;106866;1272;22526;-80
2023/10/25 04:05:31;;;;;;;25.70;4.60;;;;;;;12.53;81.77;94374.36;107093;1272;23876;-81
2023/10/25 04:07:59;;;;;;;24.80;3.50;;;;;;;12.62;81.40;94347.16;107092;1272;25362;-80
2023/10/25 04:10:29;;;;;;;30.10;4.00;;;;;;;12.73;80.92;94357.04;107134;1272;22525;-81
2023/10/25 04:13:00;;;;;;;21.60;3.40;;;;;;;13.09;79.56;94355.14;106879;1272;22523;-82
2023/10/25 04:15:30;;;;;;;25.90;2.90;;;;;;;13.42;77.91;94344.91;107059;1272;25343;-82
2023/10/25 04:17:58;;;;;;;21.40;3.10;;;;;;;13.85;76.63;94352.66;107098;1272;22461;-81
2023/10/25 04:20:35;;;;;;;21.20;2.90;;;;;;;14.20;75.63;94357.36;107068;1272;22537;-80
2023/10/25 04:23:04;;;;;;;21.50;2.80;;;;;;;14.48;75.11;94349.54;107103;1272;22643;-80
2023/10/25 04:25:32;;;;;;;23.20;2.60;;;;;;;14.61;75.22;94349.39;107085;1272;22511;-80
2023/10/25 04:28:00;;;;;;;18.60;3.30;;;;;;;14.80;73.21;94340.36;107173;1272;26540;-82
2023/10/25 04:30:28;;;;;;;21.30;3.20;;;;;;;14.89;73.71;94335.98;107088;1272;25242;-80
2023/10/25 04:32:56;;;;;;;17.90;3.00;;;;;;;14.94;73.37;94339.83;107093;1272;25303;-80
2023/10/25 04:35:25;;;;;;;21.60;3.80;;;;;;;14.95;73.20;94348.05;106839;1263;25510;-80
2023/10/25 04:37:55;;;;;;;17.90;2.80;;;;;;;15.04;72.66;94346.65;107125;1272;24104;-79
2023/10/25 04:40:23;;;;;;;17.50;2.30;;;;;;;15.15;72.22;94329.42;107089;1272;22534;-80
2023/10/25 04:42:53;;;;;;;19.20;2.90;;;;;;;15.20;71.99;94327.01;106774;1272;22646;-79
2023/10/25 04:45:22;;;;;;;18.00;3.20;;;;;;;15.20;72.31;94320.64;107132;1272;22514;-80
2023/10/25 04:47:51;;;;;;;22.40;2.90;;;;;;;15.15;72.81;94314.19;107106;1272;22543;-80
2023/10/25 04:50:21;;;;;;;17.90;2.30;;;;;;;15.06;72.96;94324.95;107079;1272;22531;-80
2023/10/25 04:52:49;;;;;;;15.70;2.80;;;;;;;15.08;72.61;94332.12;107148;1272;22640;-79
2023/10/25 04:55:18;;;;;;;11.50;2.90;;;;;;;15.11;72.91;94337.40;106859;1272;24219;-81
2023/10/25 04:57:46;;;;;;;19.80;2.80;;;;;;;15.12;73.17;94350.84;106885;1272;25291;-80
2023/10/25 05:00:15;;;;;;;14.00;1.90;;;;;;;15.08;73.53;94369.65;106906;1272;25600;-79
2023/10/25 05:02:43;;;;;;;15.90;2.50;;;;;;;15.02;74.58;94362.02;107044;1272;23881;-80
2023/10/25 05:05:11;;;;;;;12.20;2.40;;;;;;;14.95;75.47;94367.73;107051;1272;25510;-80
2023/10/25 05:07:40;;;;;;;6.20;1.00;;;;;;;14.82;75.48;94366.10;107068;1272;23429;-79
2023/10/25 05:10:10;;;;;;;8.50;2.00;;;;;;;14.76;74.44;94360.30;106804;1273;26589;-81
2023/10/25 05:12:44;;;;;;;6.80;1.00;;;;;;;14.69;75.10;94370.20;107062;1272;22549;-81
2023/10/25 05:15:14;;;;;;;7.50;3.30;;;;;;;14.62;74.72;94375.55;107104;1272;25455;-81
2023/10/25 05:17:45;;;;;;;5.30;0.80;;;;;;;14.51;75.76;94379.44;107070;1272;22642;-81
2023/10/25 05:20:14;;;;;;;4.10;1.60;;;;;;;14.45;75.84;94381.37;107126;1272;22633;-81
2023/10/25 05:22:55;;;;;;;3.30;0.50;;;;;;;14.36;76.93;94382.04;107075;1272;22516;-81
2023/10/25 05:25:24;;;;;;;5.00;0.80;;;;;;;14.30;76.95;94375.98;107064;1272;24225;-80
2023/10/25 05:27:52;;;;;;;7.40;1.50;;;;;;;14.23;77.71;94356.86;106731;1272;22530;-84
2023/10/25 05:30:21;;;;;;;2.50;0.50;;;;;;;14.11;78.36;94343.52;107093;1272;22518;-81
2023/10/25 05:32:54;;;;;;;10.60;5.50;;;;;;;14.09;77.84;94332.82;107012;1272;22661;-82
2023/10/25 05:35:22;;;;;;;34.20;28.00;;;;;;;14.08;78.10;94328.48;107092;1263;22514;-81
2023/10/25 05:37:50;;;;;;;17.60;13.60;;;;;;;14.03;78.01;94322.71;107059;1272;23912;-79
2023/10/25 05:40:19;;;;;;;157.70;111.50;;;;;;;14.02;77.99;94323.49;107057;1272;25415;-80
2023/10/25 05:42:49;;;;;;;48.30;41.50;;;;;;;13.98;78.56;94320.88;107061;1272;23010;-81
2023/10/25 05:45:17;;;;;;;26.20;22.90;;;;;;;13.93;78.89;94319.17;107048;1272;23915;-82
2023/10/25 05:47:46;;;;;;;2.80;1.40;;;;;;;13.85;79.14;94315.90;107056;1272;22547;-82
2023/10/25 05:50:15;;;;;;;3.50;2.60;;;;;;;13.76;79.43;94312.27;107038;1272;23870;-81
2023/10/25 05:52:45;;;;;;;4.30;1.10;;;;;;;13.72;79.46;94309.86;106842;1272;22606;-81
2023/10/25 05:55:15;;;;;;;33.20;19.40;;;;;;;13.75;79.44;94306.48;107110;1272;24243;-83
2023/10/25 05:57:45;;;;;;;27.90;18.10;;;;;;;13.85;79.69;94310.60;107209;1272;24236;-83
2023/10/25 06:00:15;;;;;;;75.20;54.30;;;;;;;13.92;79.48;94304.89;107407;1272;24378;-80
2023/10/25 06:02:44;;;;;;;26.30;18.80;;;;;;;14.01;79.70;94300.55;107080;1273;24589;-81
2023/10/25 06:05:13;;;;;;;8.30;4.20;;;;;;;14.05;80.10;94302.30;107148;1264;22528;-83
2023/10/25 06:07:42;;;;;;;12.60;8.90;;;;;;;14.04;80.34;94299.48;107164;1272;24370;-82
2023/10/25 06:10:11;;;;;;;5.60;3.60;;;;;;;14.05;80.63;94285.66;107140;1272;22529;-85
2023/10/25 06:12:42;;;;;;;6.50;3.20;;;;;;;14.14;80.98;94270.71;107140;1273;22784;-84
2023/10/25 06:15:10;;;;;;;6.60;1.30;;;;;;;14.23;81.14;94260.14;107244;1272;23867;-83
2023/10/25 06:17:39;;;;;;;3.90;0.80;;;;;;;14.34;81.24;94260.22;107174;1272;24393;-79
2023/10/25 06:20:08;;;;;;;5.30;2.10;;;;;;;14.45;81.02;94274.16;106812;1272;22524;-84
2023/10/25 06:22:36;;;;;;;5.10;1.00;;;;;;;14.63;80.98;94281.86;107118;1272;23913;-82
2023/10/25 06:25:05;;;;;;;6.80;1.10;;;;;;;14.78;80.05;94277.34;107138;1272;24469;-81
2023/10/25 06:27:33;;;;;;;11.70;2.80;;;;;;;14.92;79.60;94286.44;107142;1272;25496;-83
2023/10/25 06:30:02;;;;;;;10.00;1.50;;;;;;;15.08;78.11;94301.63;106821;1272;22539;-80
2023/10/25 06:32:33;;;;;;;12.10;5.20;;;;;;;15.25;74.68;94305.45;107217;1264;22530;-82
2023/10/25 06:35:01;;;;;;;13.50;2.70;;;;;;;15.37;75.40;94313.82;107097;1272;22524;-82
2023/10/25 06:37:30;;;;;;;11.10;3.80;;;;;;;15.51;74.95;94314.05;107006;1273;25290;-83
2023/10/25 06:39:59;;;;;;;13.50;4.00;;;;;;;15.65;74.91;94293.92;106879;1273;24285;-83
2023/10/25 06:42:28;;;;;;;12.00;3.20;;;;;;;15.73;73.20;94308.21;106970;1273;24278;-81
2023/10/25 06:44:56;;;;;;;12.10;2.60;;;;;;;15.80;70.60;94318.45;106861;1272;266427;-82
2023/10/25 06:47:26;;;;;;;15.00;2.40;;;;;;;15.83;70.17;94311.51;107071;1272;25346;-82
2023/10/25 06:49:55;;;;;;;15.30;3.40;;;;;;;15.83;70.44;94314.17;107163;1269;25341;-82
2023/10/25 06:52:23;;;;;;;8.70;1.90;;;;;;;15.80;70.20;94321.45;107629;1250;24374;-84
2023/10/25 06:54:53;;;;;;;11.70;2.30;;;;;;;15.80;70.04;94315.56;107435;1267;22516;-82
2023/10/25 06:57:22;;;;;;;15.60;2.40;;;;;;;15.78;70.70;94316.05;107324;1266;25402;-80
2023/10/25 06:59:50;;;;;;;14.50;2.10;;;;;;;15.75;70.56;94317.64;107273;1273;23880;-83
2023/10/25 07:02:18;;;;;;;14.80;7.60;;;;;;;15.71;70.17;94314.85;107304;1272;22667;-84
2023/10/25 07:04:48;;;;;;;19.80;7.10;;;;;;;15.72;70.41;94313.06;107113;1272;22531;-82
2023/10/25 07:07:25;;;;;;;8.70;1.70;;;;;;;15.72;71.00;94325.77;106969;1269;24211;-80
2023/10/25 07:09:53;;;;;;;14.40;3.10;;;;;;;15.74;71.79;94322.29;106909;1273;25242;-79
2023/10/25 07:12:23;;;;;;;10.70;3.10;;;;;;;15.74;70.95;94330.66;107137;1272;22523;-82
2023/10/25 07:14:51;;;;;;;11.60;1.80;;;;;;;15.76;70.67;94336.20;107535;1272;24225;-83
2023/10/25 07:17:20;;;;;;;12.10;2.30;;;;;;;15.77;70.88;94335.82;107605;1272;22528;-82
2023/10/25 07:19:48;;;;;;;8.40;2.10;;;;;;;15.77;71.10;94319.10;107524;1272;24218;-80
2023/10/25 07:22:16;;;;;;;11.00;2.60;;;;;;;15.76;71.18;94320.43;106931;1272;22564;-80
2023/10/25 07:24:44;;;;;;;14.70;2.10;;;;;;;15.75;71.20;94320.33;107040;1272;22538;-79
2023/10/25 07:27:12;;;;;;;10.90;1.90;;;;;;;15.70;71.46;94306.05;107430;1272;23502;-80
2023/10/25 07:29:41;;;;;;;7.40;1.50;;;;;;;15.62;71.36;94310.06;107452;1272;22519;-80
2023/10/25 07:32:09;;;;;;;11.80;2.60;;;;;;;15.58;71.52;94312.05;107642;1273;22542;-81
2023/10/25 07:34:37;;;;;;;9.20;1.90;;;;;;;15.64;71.64;94306.41;107532;1273;25199;-83
2023/10/25 07:37:06;;;;;;;11.30;2.30;;;;;;;15.74;72.16;94302.83;107615;1273;22526;-83
2023/10/25 07:39:34;;;;;;;3.60;1.70;;;;;;;15.80;71.88;94302.27;107637;1264;22533;-82
2023/10/25 07:42:02;;;;;;;4.90;1.20;;;;;;;15.81;71.56;94309.33;107296;1272;25281;-81
2023/10/25 07:44:31;;;;;;;8.30;1.40;;;;;;;15.82;71.57;94309.45;107247;1272;23749;-82
2023/10/25 07:46:59;;;;;;;6.00;1.20;;;;;;;15.84;71.77;94304.91;107164;1269;25423;-83
2023/10/25 07:49:27;;;;;;;4.10;1.60;;;;;;;15.85;72.46;94309.45;107446;1272;22664;-83
2023/10/25 07:51:56;;;;;;;5.00;1.20;;;;;;;15.85;73.30;94305.74;107451;1272;25628;-81
2023/10/25 07:54:24;;;;;;;9.90;2.80;;;;;;;15.84;73.02;94295.52;107134;1273;25322;-80
2023/10/25 07:56:52;;;;;;;8.50;1.50;;;;;;;15.86;72.70;94298.75;107224;1272;25393;-81
2023/10/25 07:59:23;;;;;;;5.60;0.70;;;;;;;15.91;72.15;94293.81;107116;1273;22517;-80
2023/10/25 08:01:51;;;;;;;4.80;0.80;;;;;;;15.95;69.96;94293.23;107368;1272;24257;-80
2023/10/25 08:04:20;;;;;;;5.50;1.50;;;;;;;15.99;69.94;94286.77;107523;1272;25396;-79
2023/10/25 08:06:48;;;;;;;4.00;1.20;;;;;;;16.07;70.12;94283.81;107289;1273;25443;-81
2023/10/25 08:09:16;;;;;;;6.70;1.20;;;;;;;16.15;70.12;94269.63;107613;1272;22534;-79
2023/10/25 08:11:44;;;;;;;4.20;0.90;;;;;;;16.19;69.55;94274.36;107271;1272;22527;-80
2023/10/25 08:14:12;;;;;;;4.60;0.90;;;;;;;16.16;68.55;94271.33;107561;1273;24663;-82
2023/10/25 08:16:42;;;;;;;2.40;0.80;;;;;;;16.12;68.32;94259.73;107238;1272;25300;-80
2023/10/25 08:19:11;;;;;;;3.50;0.90;;;;;;;16.10;68.48;94249.07;107374;1272;22580;-80
2023/10/25 08:21:40;;;;;;;7.30;0.80;;;;;;;16.12;67.74;94243.05;107577;1254;25647;-82
2023/10/25 08:24:08;;;;;;;8.40;1.60;;;;;;;16.20;67.73;94250.38;107176;1273;22523;-81
2023/10/25 08:26:39;;;;;;;5.70;1.10;;;;;;;16.32;67.62;94266.26;107027;1270;22997;-83
2023/10/25 08:29:08;;;;;;;4.80;0.70;;;;;;;16.44;66.74;94267.30;107231;1267;24007;-78
2023/10/25 08:31:37;;;;;;;6.60;1.20;;;;;;;16.47;66.67;94267.73;107061;1272;24257;-83
2023/10/25 08:34:05;;;;;;;2.60;0.80;;;;;;;16.49;66.41;94269.55;106856;1272;22582;-78
2023/10/25 08:36:34;;;;;;;2.70;0.90;;;;;;;16.47;66.99;94266.64;107026;1272;24254;-81
2023/10/25 08:39:02;;;;;;;3.80;0.80;;;;;;;16.37;66.91;94277.31;107038;1272;22506;-80
2023/10/25 08:41:30;;;;;;;6.20;1.00;;;;;;;16.32;67.67;94272.31;107052;1260;22516;-76
2023/10/25 08:43:58;;;;;;;2.70;0.60;;;;;;;16.28;68.24;94276.50;106823;1273;25424;-78
2023/10/25 08:46:29;;;;;;;4.20;1.00;;;;;;;16.25;68.65;94276.16;106765;1272;25375;-78
2023/10/25 08:48:57;;;;;;;6.00;0.90;;;;;;;16.26;69.86;94264.75;107069;1272;24338;-78
2023/10/25 08:51:25;;;;;;;1.60;0.70;;;;;;;16.21;70.41;94272.67;107166;1273;22518;-77
2023/10/25 08:53:58;;;;;;;3.70;0.70;;;;;;;16.15;71.44;94262.71;106972;1269;22527;-78
2023/10/25 08:56:27;;;;;;;3.10;0.70;;;;;;;16.11;71.74;94274.51;107039;1272;24260;-80
2023/10/25 09:01:14;;;;;;;2.30;1.00;;;;;;;16.00;73.53;94278.19;103884;1304;544969;-81
2023/10/25 09:03:42;;;;;;;2.40;0.80;;;;;;;15.96;72.29;94283.58;106128;1287;24238;-80
2023/10/25 09:06:21;;;;;;;1.20;0.50;;;;;;;15.84;72.80;94278.81;106376;1287;22955;-81
2023/10/25 09:09:05;;;;;;;1.00;0.40;;;;;;;15.81;73.36;94286.99;106243;1288;22527;-82
2023/10/25 09:11:42;;;;;;;1.90;0.60;;;;;;;15.82;73.69;94294.75;106291;1288;25431;-79
2023/10/25 09:14:12;;;;;;;1.50;0.60;;;;;;;15.78;73.52;94293.33;106166;1285;203005;-80
2023/10/25 09:16:43;;;;;;;1.10;0.50;;;;;;;15.67;73.05;94306.95;106606;1277;22596;-80
2023/10/25 09:19:17;;;;;;;1.20;0.60;;;;;;;15.57;72.54;94303.44;106776;1277;25440;-81
2023/10/25 09:21:45;;;;;;;0.60;0.30;;;;;;;15.51;73.07;94314.57;106830;1277;22529;-78
2023/10/25 09:24:13;;;;;;;1.50;0.60;;;;;;;15.39;73.55;94331.06;106784;1277;24374;-79
2023/10/25 09:26:41;;;;;;;0.30;0.30;;;;;;;15.25;74.18;94327.64;106608;1277;23075;-79
2023/10/25 09:29:11;;;;;;;3.50;0.60;;;;;;;15.07;74.57;94321.52;106632;1277;22546;-80
2023/10/25 09:31:39;;;;;;;1.60;0.70;;;;;;;15.02;75.01;94324.66;106583;1277;24262;-80
2023/10/25 09:34:08;;;;;;;3.20;0.90;;;;;;;14.92;75.51;94318.43;106669;1277;22523;-82
2023/10/25 09:36:37;;;;;;;3.00;0.50;;;;;;;14.99;75.84;94315.45;106602;1277;22799;-79
2023/10/25 09:39:05;;;;;;;3.40;0.50;;;;;;;15.03;75.30;94313.60;106665;1273;24394;-78
2023/10/25 09:41:38;;;;;;;1.60;0.60;;;;;;;15.09;75.28;94322.98;106887;1260;22523;-84
2023/10/25 09:44:17;;;;;;;1.00;0.40;;;;;;;15.12;75.61;94329.77;107063;1265;24379;-80
2023/10/25 09:46:47;;;;;;;3.30;0.80;;;;;;;15.08;75.76;94330.67;107128;1265;22687;-82
2023/10/25 09:49:16;;;;;;;3.00;0.80;;;;;;;15.02;76.46;94331.20;106906;1259;24383;-79
2023/10/25 09:52:07;;;;;;;2.10;0.50;;;;;;;15.05;75.76;94343.61;106874;1272;23908;-81
2023/10/25 09:54:37;;;;;;;1.10;0.60;;;;;;;14.97;75.32;94339.09;107058;1272;22646;-79
2023/10/25 09:57:07;;;;;;;1.50;0.50;;;;;;;14.94;75.71;94343.85;107111;1272;22523;-79
2023/10/25 09:59:37;;;;;;;2.40;0.50;;;;;;;14.90;75.89;94348.13;107092;1272;22527;-79
2023/10/25 10:02:08;;;;;;;0.50;0.40;;;;;;;14.99;76.19;94347.52;107028;1272;25431;-80
2023/10/25 10:05:01;;;;;;;1.30;0.50;;;;;;;15.11;76.80;94333.89;107121;1272;22514;-79
2023/10/25 10:07:44;;;;;;;1.60;0.40;;;;;;;15.26;75.47;94334.95;107197;1272;24225;-79
2023/10/25 10:12:07;;;;;;;1.00;0.40;;;;;;;15.36;74.74;94338.52;103806;1305;546639;-78
2023/10/25 10:14:37;;;;;;;0.80;0.50;;;;;;;15.27;74.27;94346.13;106280;1286;22532;-80
2023/10/25 10:17:08;;;;;;;0.70;0.30;;;;;;;15.21;74.73;94332.24;106342;1287;22560;-77
2023/10/25 10:19:41;;;;;;;0.60;0.40;;;;;;;15.13;75.39;94349.37;106321;1286;24277;-77
2023/10/25 10:22:13;;;;;;;;;;;;;;;15.08;76.87;94351.07;106066;1287;22631;-77
2023/10/25 10:25:00;;;;;;;0.90;0.40;;;;;;;15.00;77.53;94363.57;106018;1285;208761;-78
2023/10/25 10:27:41;;;;;;;0.30;0.30;;;;;;;14.99;77.80;94358.14;106342;1284;22532;-77
2023/10/25 10:30:37;;;;;;;2.00;0.70;;;;;;;15.07;78.54;94352.88;106393;1284;22685;-80
2023/10/25 10:33:11;;;;;;;0.30;0.30;;;;;;;15.24;79.02;94348.02;106300;1275;22536;-79
2023/10/25 10:35:49;;;;;;;0.60;0.30;;;;;;;15.29;79.18;94339.94;106425;1281;22568;-78
2023/10/25 10:38:18;;;;;;;1.00;0.30;;;;;;;15.32;77.03;94338.86;106681;1281;22546;-77
2023/10/25 10:40:51;;;;;;;0.70;0.40;;;;;;;15.42;76.78;94332.64;106673;1281;25425;-82
2023/10/25 10:43:20;;;;;;;0.40;0.20;;;;;;;15.56;74.45;94326.88;106387;1281;24218;-78
2023/10/25 10:45:52;;;;;;;1.10;0.30;;;;;;;15.75;74.05;94325.10;106303;1281;22971;-78
2023/10/25 10:48:32;;;;;;;1.60;0.60;;;;;;;16.13;73.63;94324.41;106254;1281;22650;-77
2023/10/25 10:51:02;;;;;;;0.60;0.30;;;;;;;16.44;70.71;94311.71;106482;1278;22526;-76
2023/10/25 10:53:30;;;;;;;0.80;0.50;;;;;;;16.56;70.53;94306.33;106707;1278;24214;-77
2023/10/25 10:55:59;;;;;;;0.30;0.30;;;;;;;17.12;68.34;94296.20;106831;1278;22645;-80
2023/10/25 10:58:29;;;;;;;0.30;0.30;;;;;;;17.81;67.44;94289.20;106804;1278;22578;-78
2023/10/25 11:00:58;;;;;;;0.30;0.30;;;;;;;18.38;63.35;94283.85;106743;1278;22513;-79
2023/10/25 11:03:28;;;;;;;2.10;0.30;;;;;;;18.62;61.01;94274.02;106570;1278;24219;-78
2023/10/25 11:05:58;;;;;;;0.30;0.30;;;;;;;19.12;61.08;94279.35;106869;1270;22531;-79
2023/10/25 11:08:26;;;;;;;0.50;0.30;;;;;;;19.59;58.09;94279.23;106849;1270;22650;-78
2023/10/25 11:10:55;;;;;;;1.40;0.50;;;;;;;19.90;55.47;94273.23;106827;1278;22647;-80
2023/10/25 11:13:23;;;;;;;0.30;0.30;;;;;;;20.12;54.49;94262.39;106820;1278;22516;-79
2023/10/25 11:16:02;;;;;;;0.70;0.40;;;;;;;20.57;54.63;94251.91;106779;1278;22533;-79
2023/10/25 11:18:30;;;;;;;2.10;0.30;;;;;;;21.20;53.51;94249.89;106632;1278;25158;-77
2023/10/25 11:21:00;;;;;;;1.60;0.30;;;;;;;21.43;49.48;94260.94;106591;1278;25320;-78
2023/10/25 11:23:28;;;;;;;3.20;0.30;;;;;;;21.29;48.98;94258.65;106596;1277;22940;-78
2023/10/25 11:25:56;;;;;;;1.50;0.20;;;;;;;21.09;48.51;94259.91;106701;1276;25421;-78
2023/10/25 11:28:26;;;;;;;0.20;0.20;;;;;;;21.20;48.57;94263.55;106702;1277;24789;-77
2023/10/25 11:31:01;;;;;;;3.20;0.30;;;;;;;21.40;48.36;94263.90;106619;1276;22591;-81
2023/10/25 11:33:29;;;;;;;0.50;0.30;;;;;;;21.55;47.79;94267.42;106881;1276;22528;-82
2023/10/25 11:35:58;;;;;;;0.20;0.20;;;;;;;21.61;47.71;94258.75;106831;1277;24314;-81